Aurelia, Iowa
Current Conditions -  °F | °C
As of 8:55 PM on Wednesday 22 Oct 2014 (Local Time) from KCKP Reporting Station
Moderate Rain Moderate Rain  
Wind Chill: 58°   Ceiling: 2900
Heat Index: 58°   Visibility: 7mi
Dew Point: 58°   Wind: 7mph
Humidity: 100%   Direction: 150°SSE
Pressure: 30.05"   Gusts: NA
Location:  42.71°N, 95.44°W
Report Text: KCKP 230155Z AUTO 15006KT 7SM RA BKN029 OVC034 15/15 A3005 RMK AO2 P0009 T01460146
Loading
Personal Weather Stations






























Interactive Weather Map
Tropical Storm Tracking
New forecast layout! Learn more

10-Day Weather Forecast

Advertisements
Track Severe Weather on mobile